Time;durP1;ratioP1;P1;durP2;ratioP2;P2;SDS_P1;SDS_P2;PMS_P1;PMS_P2;Temp;Humidity;BMP_temperature;BMP_pressure;BME280_temperature;BME280_humidity;BME280_pressure;Samples;Min_cycle;Max_cycle;Signal;HPM_P1;HPM_P2
2021/03/28 00:02:30;;;;;;;36.00;20.08;;;;;;;5.00;74.00;101805.77;1816196;79;22458;-69
2021/03/28 00:05:19;;;;;;;32.90;20.85;;;;;;;4.96;74.08;101810.63;1817895;78;22242;-70
2021/03/28 00:07:56;;;;;;;30.20;20.35;;;;;;;4.95;74.10;101810.20;1809519;77;21010;-70
2021/03/28 00:10:45;;;;;;;32.30;20.80;;;;;;;4.90;73.93;101811.59;1817881;79;20950;-70
2021/03/28 00:13:20;;;;;;;32.17;19.50;;;;;;;4.87;73.86;101812.06;1817929;79;21013;-69
2021/03/28 00:16:00;;;;;;;28.23;17.80;;;;;;;4.80;73.82;101811.31;1830853;78;21021;-70
2021/03/28 00:19:07;;;;;;;31.95;20.75;;;;;;;4.72;73.91;101811.45;1829421;78;20997;-71
2021/03/28 00:21:51;;;;;;;39.35;23.18;;;;;;;4.67;73.83;101812.39;1832948;78;20918;-70
2021/03/28 00:24:29;;;;;;;22.73;15.38;;;;;;;4.57;73.87;101817.75;1833333;78;21467;-72
2021/03/28 00:27:16;;;;;;;20.92;13.93;;;;;;;4.52;74.31;101818.72;1832388;77;21029;-70
2021/03/28 00:29:52;;;;;;;23.15;13.18;;;;;;;4.47;74.67;101819.20;1832423;77;21359;-71
2021/03/28 00:32:24;;;;;;;19.77;14.38;;;;;;;4.44;74.88;101817.52;1831720;78;21590;-70
2021/03/28 00:34:53;;;;;;;23.60;15.50;;;;;;;4.47;75.05;101825.70;1832488;78;20998;-70
2021/03/28 00:37:28;;;;;;;24.90;16.30;;;;;;;4.47;74.96;101827.88;1779101;78;21012;-69
2021/03/28 00:40:01;;;;;;;26.73;16.62;;;;;;;4.44;74.78;101826.61;1832422;78;20925;-69
2021/03/28 00:42:41;;;;;;;27.22;16.87;;;;;;;4.42;74.79;101827.52;1832437;78;21354;-70
2021/03/28 00:45:25;;;;;;;23.27;16.25;;;;;;;4.41;74.83;101831.86;1832442;78;21619;-70
2021/03/28 00:48:14;;;;;;;25.27;17.35;;;;;;;4.41;74.81;101832.30;1832270;78;20891;-70
2021/03/28 00:50:58;;;;;;;29.95;18.52;;;;;;;4.39;74.59;101836.22;1832295;77;20926;-70
2021/03/28 00:53:48;;;;;;;31.85;19.90;;;;;;;4.31;74.84;101837.64;1832371;77;21068;-70
2021/03/28 00:56:42;;;;;;;32.53;20.43;;;;;;;4.28;74.63;101831.62;1832380;78;21355;-69
2021/03/28 00:59:38;;;;;;;34.30;21.33;;;;;;;4.26;74.40;101831.62;1832478;77;25644;-69
2021/03/28 01:02:27;;;;;;;35.17;21.20;;;;;;;4.22;74.02;101829.95;1830663;78;20945;-70
2021/03/28 01:05:17;;;;;;;34.40;21.50;;;;;;;4.14;73.86;101834.41;1832307;77;20922;-69
2021/03/28 01:07:50;;;;;;;29.05;19.57;;;;;;;4.07;73.58;101833.64;1832504;78;20992;-70
2021/03/28 01:10:42;;;;;;;31.85;18.00;;;;;;;4.01;73.60;101832.86;1832448;78;22250;-71
2021/03/28 01:14:01;;;;;;;31.05;17.73;;;;;;;3.93;73.55;101829.05;1832288;78;20957;-68
2021/03/28 01:17:08;;;;;;;32.38;19.62;;;;;;;3.85;73.69;101827.87;1817248;78;20970;-68
2021/03/28 01:19:57;;;;;;;35.20;20.27;;;;;;;3.76;73.68;101834.47;1817442;77;20939;-69
2021/03/28 01:22:47;;;;;;;34.20;21.25;;;;;;;3.67;73.96;101833.29;1817495;78;20934;-68
2021/03/28 01:25:26;;;;;;;38.30;20.55;;;;;;;3.61;73.97;101842.43;1817352;77;21793;-69
2021/03/28 01:28:02;;;;;;;28.85;19.87;;;;;;;3.53;73.71;101841.20;1817284;79;21539;-71
2021/03/28 01:30:38;;;;;;;;;;;;;;;3.43;74.52;101839.16;1820053;78;21018;-71
2021/03/28 01:33:14;;;;;;;31.70;20.35;;;;;;;3.40;75.03;101837.91;1817598;78;20502;-69
2021/03/28 01:36:10;;;;;;;32.53;20.10;;;;;;;3.35;74.29;101844.85;1817713;78;21442;-69
2021/03/28 01:38:44;;;;;;;27.55;18.10;;;;;;;3.24;74.37;101844.10;1817332;79;22675;-71
2021/03/28 01:41:21;;;;;;;34.18;20.65;;;;;;;3.13;74.93;101845.50;1786472;79;20990;-69
2021/03/28 01:43:56;;;;;;;32.95;21.57;;;;;;;3.10;75.61;101852.02;1817281;77;21025;-69
2021/03/28 01:47:00;;;;;;;33.48;21.60;;;;;;;3.09;75.50;101855.05;1817261;78;20907;-70
2021/03/28 01:49:54;;;;;;;40.17;23.38;;;;;;;3.05;75.69;101851.21;1816912;77;21431;-70
2021/03/28 01:52:48;;;;;;;37.80;22.17;;;;;;;2.99;75.25;101858.58;1817203;79;20950;-69
2021/03/28 01:55:33;;;;;;;37.42;22.98;;;;;;;2.90;75.27;101864.70;1816349;77;20954;-69
2021/03/28 01:58:25;;;;;;;35.05;20.68;;;;;;;2.83;75.61;101860.45;1817301;78;20943;-69
2021/03/28 02:01:10;;;;;;;39.42;24.67;;;;;;;2.77;75.68;101868.70;1817315;79;21547;-69
2021/03/28 02:04:04;;;;;;;40.25;24.57;;;;;;;2.68;75.69;101867.03;1817277;78;21038;-68
2021/03/28 02:06:54;;;;;;;38.55;23.35;;;;;;;2.61;75.69;101867.95;1817317;78;21365;-68
2021/03/28 02:09:32;;;;;;;38.10;25.48;;;;;;;2.59;75.84;101870.98;1815297;79;21452;-69
2021/03/28 02:12:41;;;;;;;37.65;22.80;;;;;;;2.58;76.05;101866.25;1817251;79;21405;-69
2021/03/28 02:15:32;;;;;;;34.20;21.75;;;;;;;2.55;76.31;101867.55;1817104;78;21524;-70
2021/03/28 02:18:09;;;;;;;37.28;23.25;;;;;;;2.51;76.28;101866.28;1816985;78;20958;-70
2021/03/28 02:20:48;;;;;;;32.83;21.55;;;;;;;2.47;76.75;101869.34;1817347;77;22182;-69
2021/03/28 02:23:51;;;;;;;38.63;23.32;;;;;;;2.43;77.16;101870.23;1817186;79;21432;-69
2021/03/28 02:26:33;;;;;;;41.33;24.92;;;;;;;2.39;77.41;101868.52;1803983;77;21532;-69
2021/03/28 02:29:20;;;;;;;35.28;24.30;;;;;;;2.36;77.29;101865.97;1817203;77;20943;-69
2021/03/28 02:32:21;;;;;;;34.70;23.77;;;;;;;2.37;77.10;101873.70;1817246;78;20923;-71
2021/03/28 02:35:13;;;;;;;34.73;23.80;;;;;;;2.35;76.77;101867.67;1817234;78;21653;-68
2021/03/28 02:38:21;;;;;;;41.65;25.37;;;;;;;2.31;76.48;101868.55;1817161;79;21013;-70
2021/03/28 02:41:16;;;;;;;40.75;24.80;;;;;;;2.27;76.47;101865.14;1817167;79;20974;-68
2021/03/28 02:43:49;;;;;;;36.60;22.65;;;;;;;2.24;76.81;101866.88;1817209;77;20930;-71
2021/03/28 02:46:47;;;;;;;38.80;23.67;;;;;;;2.20;77.39;101874.22;1817200;78;20913;-71
2021/03/28 02:49:52;;;;;;;41.05;25.45;;;;;;;2.20;78.24;101868.63;1817187;79;21333;-69
2021/03/28 02:52:38;;;;;;;44.58;27.50;;;;;;;2.26;78.35;101876.78;1817141;78;20978;-69
2021/03/28 02:55:48;;;;;;;39.05;25.12;;;;;;;2.25;78.41;101872.05;1817238;79;21360;-69
2021/03/28 02:58:53;;;;;;;39.60;24.27;;;;;;;2.25;78.11;101880.25;1817198;79;20930;-69
2021/03/28 03:01:59;;;;;;;37.90;22.37;;;;;;;2.24;77.68;101877.22;1817236;79;20939;-69
2021/03/28 03:04:57;;;;;;;29.50;21.00;;;;;;;2.23;77.39;101881.98;1817474;77;22270;-69
2021/03/28 03:08:01;;;;;;;45.10;27.13;;;;;;;2.19;77.02;101877.69;1817225;79;21100;-70
2021/03/28 03:10:36;;;;;;;65.75;40.98;;;;;;;2.10;76.94;101881.18;1817338;77;20990;-70
2021/03/28 03:13:14;;;;;;;;;;;;;;;1.98;77.02;101883.39;1819977;79;21337;-69
2021/03/28 03:15:59;;;;;;;88.00;41.05;;;;;;;1.91;77.36;101873.06;1817148;78;20165;-70
2021/03/28 03:19:05;;;;;;;71.55;39.88;;;;;;;1.87;78.03;101873.52;1793859;79;21376;-69
2021/03/28 03:22:18;;;;;;;64.25;33.10;;;;;;;1.83;78.40;101876.55;1817218;79;20974;-69
2021/03/28 03:25:32;;;;;;;56.15;32.85;;;;;;;1.82;78.48;101874.84;1798673;79;20923;-69
2021/03/28 03:28:46;;;;;;;62.45;33.23;;;;;;;1.81;78.51;101872.25;1803689;79;20982;-71
2021/03/28 03:31:48;;;;;;;64.92;34.08;;;;;;;1.81;78.01;101868.37;1817332;79;20911;-70
2021/03/28 03:34:45;;;;;;;57.67;30.92;;;;;;;1.79;77.56;101875.27;1817193;78;21779;-70
2021/03/28 03:37:47;;;;;;;57.58;29.42;;;;;;;1.71;77.41;101879.16;1816520;79;21519;-71
2021/03/28 03:40:48;;;;;;;41.35;25.65;;;;;;;1.66;77.42;101884.34;1813414;77;20923;-71
2021/03/28 03:43:46;;;;;;;51.23;30.82;;;;;;;1.61;77.78;101893.84;1817287;79;21539;-71
2021/03/28 03:46:31;;;;;;;56.88;32.25;;;;;;;1.59;77.95;101911.52;1817318;79;21042;-69
2021/03/28 03:49:19;;;;;;;60.73;35.35;;;;;;;1.60;78.66;101922.28;1817325;79;21344;-70
2021/03/28 03:52:20;;;;;;;57.05;34.08;;;;;;;1.65;79.33;101913.66;1817052;78;20966;-69
2021/03/28 03:54:59;;;;;;;55.70;32.30;;;;;;;1.76;79.53;101917.96;1817149;79;20931;-70
2021/03/28 03:57:39;;;;;;;47.78;29.95;;;;;;;1.85;79.78;101923.11;1817136;79;20914;-70
2021/03/28 04:00:16;;;;;;;45.23;29.00;;;;;;;1.93;79.98;101929.09;1817198;77;22044;-71
2021/03/28 04:03:02;;;;;;;50.25;29.02;;;;;;;2.01;79.72;101926.06;1817370;78;21345;-71
2021/03/28 04:05:56;;;;;;;62.00;32.88;;;;;;;2.10;79.31;101927.75;1817283;78;20966;-70
2021/03/28 04:08:50;;;;;;;81.63;46.92;;;;;;;2.17;78.79;101929.88;1817157;77;20946;-70
2021/03/28 04:11:41;;;;;;;92.82;51.80;;;;;;;2.17;78.54;101933.33;1817313;79;21041;-70
2021/03/28 04:14:38;;;;;;;66.75;38.02;;;;;;;2.22;78.44;101939.77;1781593;79;21029;-71
2021/03/28 04:17:42;;;;;;;76.77;45.40;;;;;;;2.33;78.48;101947.05;1781638;79;22360;-70
2021/03/28 04:20:51;;;;;;;71.30;48.17;;;;;;;2.56;78.36;101945.67;1830273;76;27844;-71
2021/03/28 04:23:49;;;;;;;75.47;45.48;;;;;;;2.66;78.25;101948.61;1818062;77;22271;-71
2021/03/28 04:26:58;;;;;;;75.20;40.30;;;;;;;2.87;77.75;101946.34;1818092;79;21373;-71
2021/03/28 04:29:26;;;;;;;71.47;42.33;;;;;;;3.03;77.21;101946.24;1817920;77;20943;-72
2021/03/28 04:32:34;;;;;;;75.00;43.73;;;;;;;3.14;76.78;101950.05;1818013;79;20934;-70
2021/03/28 04:35:14;;;;;;;57.60;35.80;;;;;;;3.26;76.56;101948.64;1818094;79;21328;-70
2021/03/28 04:38:00;;;;;;;53.55;35.30;;;;;;;3.40;75.98;101949.81;1818010;78;20966;-71
2021/03/28 04:40:54;;;;;;;51.05;33.45;;;;;;;3.52;75.67;101951.02;1817744;78;21758;-70
2021/03/28 04:45:09;;;;;;;55.03;35.60;;;;;;;3.95;75.34;101957.91;1816071;79;23152;-70
2021/03/28 04:47:48;;;;;;;57.40;35.48;;;;;;;4.23;75.00;101956.31;1789120;80;20978;-71
2021/03/28 04:50:38;;;;;;;57.23;35.17;;;;;;;4.70;74.14;101959.17;1788795;80;21834;-70
2021/03/28 04:53:39;;;;;;;47.80;32.98;;;;;;;5.16;73.02;101957.20;1789038;80;20962;-71
2021/03/28 04:57:05;;;;;;;58.00;38.70;;;;;;;5.85;71.43;101948.61;1877444;76;21981;-71
2021/03/28 05:00:01;;;;;;;64.72;42.05;;;;;;;6.26;70.49;101960.00;1827263;77;20937;-70
2021/03/28 05:02:47;;;;;;;52.43;35.70;;;;;;;6.86;69.57;101958.26;1827248;78;21382;-70
2021/03/28 05:05:36;;;;;;;59.05;40.50;;;;;;;7.43;68.03;101965.58;1827270;78;21395;-74
2021/03/28 05:08:35;;;;;;;64.15;41.95;;;;;;;7.98;66.71;101960.67;1827369;77;20926;-74
2021/03/28 05:11:30;;;;;;;59.83;37.55;;;;;;;8.48;65.75;101965.37;1827228;78;20926;-72
2021/03/28 05:14:47;;;;;;;51.23;36.38;;;;;;;8.99;64.36;101975.61;1827206;78;21048;-71
2021/03/28 05:17:43;;;;;;;78.52;59.93;;;;;;;9.43;62.66;101970.23;1827221;77;21738;-71
2021/03/28 05:20:33;;;;;;;62.50;41.48;;;;;;;9.92;60.20;101969.00;1826735;77;20946;-71
2021/03/28 05:23:07;;;;;;;60.23;40.88;;;;;;;10.36;58.19;101967.88;1827185;78;20934;-71
2021/03/28 05:26:14;;;;;;;70.32;52.20;;;;;;;10.68;57.01;101963.16;1827322;78;20982;-70
2021/03/28 05:28:58;;;;;;;65.00;46.28;;;;;;;10.95;56.16;101969.94;1827265;78;21045;-71
2021/03/28 05:31:54;;;;;;;92.02;69.15;;;;;;;11.29;55.41;101965.08;1826803;78;21364;-70
2021/03/28 05:34:49;;;;;;;78.52;56.90;;;;;;;11.59;54.98;101962.48;1826973;78;21348;-71
2021/03/28 05:37:36;;;;;;;68.33;53.30;;;;;;;11.97;54.60;101964.41;1827238;78;21078;-73
2021/03/28 05:40:19;;;;;;;60.50;43.35;;;;;;;12.42;54.15;101967.19;1827104;77;20882;-69
2021/03/28 05:43:43;;;;;;;54.25;41.13;;;;;;;12.87;53.20;101969.89;1827210;78;20981;-70
2021/03/28 05:46:53;;;;;;;52.23;39.13;;;;;;;13.21;52.21;101966.95;1827334;77;21185;-70
2021/03/28 05:49:59;;;;;;;52.35;39.40;;;;;;;13.67;51.07;101961.58;1800248;78;20945;-69
2021/03/28 05:52:56;;;;;;;44.15;35.33;;;;;;;14.20;50.19;101961.45;1828083;78;28631;-69
2021/03/28 05:56:07;;;;;;;47.70;35.58;;;;;;;14.68;49.30;101961.06;1826067;78;20926;-70
2021/03/28 05:58:52;;;;;;;42.00;28.30;;;;;;;15.02;48.73;101973.20;1825323;78;20890;-73
2021/03/28 06:02:11;;;;;;;39.03;29.40;;;;;;;15.42;47.67;101970.89;1824034;77;21806;-72
2021/03/28 06:05:02;;;;;;;32.63;25.30;;;;;;;15.79;47.14;101966.58;1825112;77;21337;-73
2021/03/28 06:08:12;;;;;;;39.50;26.75;;;;;;;16.19;45.63;101964.14;1824596;77;21017;-72
2021/03/28 06:11:30;;;;;;;27.70;18.10;;;;;;;16.56;45.19;101963.97;1824488;78;21041;-72
2021/03/28 06:14:28;;;;;;;26.93;18.57;;;;;;;16.95;43.03;101963.23;1824507;78;20969;-71
2021/03/28 06:17:27;;;;;;;36.68;22.22;;;;;;;17.33;41.61;101963.81;1824541;78;21085;-72
2021/03/28 06:20:32;;;;;;;16.05;12.37;;;;;;;17.59;40.41;101960.73;1824475;77;20902;-71
2021/03/28 06:23:53;;;;;;;35.23;21.30;;;;;;;17.87;38.94;101964.65;1821041;78;21005;-72
2021/03/28 06:26:42;;;;;;;20.95;15.48;;;;;;;18.03;37.72;101966.63;1824133;78;20949;-71
2021/03/28 06:29:34;;;;;;;21.40;14.90;;;;;;;18.21;38.11;101957.84;1824557;78;21067;-73
2021/03/28 06:32:37;;;;;;;13.38;10.40;;;;;;;18.49;37.56;101963.33;1824544;78;21245;-72
2021/03/28 06:35:49;;;;;;;13.65;10.28;;;;;;;18.75;36.30;101973.41;1824415;78;21478;-73
2021/03/28 06:39:03;;;;;;;20.60;13.40;;;;;;;19.00;35.68;101978.28;1824759;78;21445;-71
2021/03/28 06:42:17;;;;;;;24.47;20.37;;;;;;;19.10;35.97;101981.97;1817744;78;21483;-74
2021/03/28 06:45:14;;;;;;;28.77;18.77;;;;;;;19.19;36.00;101983.93;1824754;77;20934;-74
2021/03/28 06:48:20;;;;;;;27.42;19.48;;;;;;;19.16;36.42;101981.48;1824616;78;21796;-74
2021/03/28 06:51:29;;;;;;;20.23;13.45;;;;;;;19.26;36.58;101979.84;1824642;78;20973;-74
2021/03/28 06:54:28;;;;;;;18.75;14.00;;;;;;;19.61;34.79;101976.81;1824643;77;20973;-75
2021/03/28 06:57:28;;;;;;;15.20;10.15;;;;;;;19.87;35.21;101976.98;1818193;78;20938;-73
2021/03/28 07:00:32;;;;;;;14.87;13.22;;;;;;;20.10;33.85;101971.70;1782095;78;21029;-74
2021/03/28 07:03:54;;;;;;;13.68;8.63;;;;;;;20.30;34.69;101974.11;1824716;78;21602;-74
2021/03/28 07:06:51;;;;;;;10.98;7.72;;;;;;;20.49;31.72;101965.47;1824715;78;21424;-74
2021/03/28 07:09:33;;;;;;;9.70;6.95;;;;;;;20.49;31.54;101966.80;1824636;78;22618;-73
2021/03/28 07:12:41;;;;;;;15.28;9.75;;;;;;;20.37;31.38;101973.14;1824638;77;21021;-75
2021/03/28 07:15:29;;;;;;;16.82;11.05;;;;;;;20.22;30.86;101963.21;1800954;78;21056;-74
2021/03/28 07:18:32;;;;;;;12.85;9.73;;;;;;;20.24;31.30;101966.59;1823420;77;21875;-74
2021/03/28 07:21:34;;;;;;;14.45;10.40;;;;;;;20.43;31.45;101963.30;1824519;78;20962;-75
2021/03/28 07:24:17;;;;;;;9.28;7.08;;;;;;;20.73;30.66;101966.67;1824729;78;20890;-75
2021/03/28 07:27:05;;;;;;;6.87;5.67;;;;;;;21.15;30.32;101960.09;1823681;77;21029;-76
2021/03/28 07:30:00;;;;;;;6.67;5.60;;;;;;;21.41;29.24;101966.41;1808644;77;21538;-74
2021/03/28 07:33:09;;;;;;;5.25;4.67;;;;;;;21.52;29.83;101964.55;1824843;78;21403;-77
2021/03/28 07:36:01;;;;;;;6.53;4.72;;;;;;;21.63;28.72;101974.78;1824594;78;21021;-74
2021/03/28 07:39:06;;;;;;;6.03;5.42;;;;;;;21.57;29.10;101969.98;1812693;78;20941;-75
2021/03/28 07:41:50;;;;;;;9.00;5.65;;;;;;;21.64;29.22;101968.48;1824543;77;21547;-75
2021/03/28 07:44:36;;;;;;;7.05;5.85;;;;;;;21.64;28.74;101970.66;1824573;78;20977;-76
2021/03/28 07:47:31;;;;;;;6.33;5.28;;;;;;;21.68;28.83;101968.58;1824554;78;21334;-76
2021/03/28 07:50:58;;;;;;;5.40;4.85;;;;;;;21.77;28.47;101960.27;1822856;77;20902;-75
2021/03/28 07:53:43;;;;;;;5.33;4.55;;;;;;;21.94;28.16;101961.83;1824560;78;20986;-75
2021/03/28 07:56:38;;;;;;;6.25;5.20;;;;;;;22.20;28.17;101972.55;1827950;78;21001;-76
2021/03/28 07:59:45;;;;;;;6.05;5.50;;;;;;;22.35;27.57;101961.37;1828239;78;20961;-75
2021/03/28 08:02:37;;;;;;;6.87;5.17;;;;;;;22.43;27.60;101961.17;1832995;77;21502;-74
2021/03/28 08:05:49;;;;;;;8.35;5.70;;;;;;;22.58;28.25;101966.48;1831502;77;21003;-75
2021/03/28 08:08:37;;;;;;;5.87;5.22;;;;;;;22.58;27.31;101963.81;1832722;78;20981;-76
2021/03/28 08:11:31;;;;;;;9.98;7.20;;;;;;;22.33;27.39;101964.66;1832583;78;20989;-75
2021/03/28 08:14:27;;;;;;;6.80;5.80;;;;;;;22.21;27.53;101960.86;1832672;78;20934;-74
2021/03/28 08:17:13;;;;;;;7.58;6.47;;;;;;;22.28;27.98;101962.91;1832564;78;21352;-75
2021/03/28 08:20:26;;;;;;;8.98;6.55;;;;;;;22.48;27.98;101959.79;1832532;78;20906;-73
2021/03/28 08:23:21;;;;;;;8.50;7.15;;;;;;;22.65;27.94;101962.27;1832529;78;21352;-71
2021/03/28 08:25:58;;;;;;;9.83;8.45;;;;;;;22.95;27.64;101955.14;1832518;78;20929;-75
2021/03/28 08:29:04;;;;;;;10.98;9.88;;;;;;;23.10;27.70;101957.78;1832720;78;20891;-73
2021/03/28 08:31:40;;;;;;;11.75;9.40;;;;;;;23.20;27.66;101949.73;1832766;78;21183;-75
2021/03/28 08:34:32;;;;;;;10.13;9.13;;;;;;;23.37;28.62;101954.86;1832625;77;21009;-76
2021/03/28 08:37:57;;;;;;;13.20;11.88;;;;;;;23.39;28.02;101952.89;1802665;77;21020;-71
2021/03/28 08:40:59;;;;;;;13.55;10.82;;;;;;;23.38;27.59;101948.51;1832619;78;21336;-70
2021/03/28 08:44:01;;;;;;;12.30;11.10;;;;;;;23.48;27.64;101949.34;1832519;78;20977;-70
2021/03/28 08:47:12;;;;;;;12.35;10.55;;;;;;;23.57;27.34;101955.67;1799095;79;21364;-70
2021/03/28 08:50:23;;;;;;;10.90;9.80;;;;;;;23.56;27.48;101951.29;1799073;79;21000;-75
2021/03/28 08:53:19;;;;;;;11.40;9.58;;;;;;;23.44;27.17;101957.31;1799174;79;21004;-80
2021/03/28 08:56:12;;;;;;;15.72;9.43;;;;;;;23.51;27.64;101954.91;1795857;78;21068;-77
2021/03/28 08:59:19;;;;;;;10.27;9.07;;;;;;;23.61;28.04;101950.85;1784162;80;20997;-80
2021/03/28 09:02:19;;;;;;;10.55;9.45;;;;;;;23.69;27.72;101951.81;1783186;79;21452;-77
2021/03/28 09:05:13;;;;;;;11.83;10.18;;;;;;;23.70;27.77;101951.31;1783411;80;21602;-77
2021/03/28 09:07:45;;;;;;;10.30;8.95;;;;;;;23.75;27.73;101941.06;1783384;80;21001;-77
2021/03/28 09:10:49;;;;;;;9.73;8.75;;;;;;;23.81;28.34;101952.51;1782739;80;20917;-77
2021/03/28 09:13:49;;;;;;;12.37;10.78;;;;;;;23.87;28.32;101945.73;1783331;79;21062;-83
2021/03/28 09:17:10;;;;;;;;;;;;;;;;;;;;;
2021/03/28 09:20:53;;;;;;;;;;;;;;;;;;;;;
2021/03/28 09:24:33;;;;;;;10.08;7.42;;;;;;;23.55;28.31;101946.44;1747596;82;20970;-80
2021/03/28 09:27:46;;;;;;;9.20;6.25;;;;;;;23.55;27.50;101946.44;1750104;82;21798;-77
2021/03/28 09:34:41;;;;;;;6.72;5.92;;;;;;;22.93;27.86;101940.55;1749528;82;20955;-79
2021/03/28 09:37:56;;;;;;;7.33;6.47;;;;;;;22.78;27.93;101929.91;1748858;82;20982;-80
2021/03/28 09:40:41;;;;;;;8.90;7.28;;;;;;;22.77;27.63;101932.25;1749015;82;21031;-80
2021/03/28 09:43:40;;;;;;;10.90;6.78;;;;;;;22.65;27.39;101926.17;1785563;79;22172;-80
2021/03/28 09:47:00;;;;;;;9.93;7.70;;;;;;;22.51;27.63;101925.25;1818030;78;20946;-80
2021/03/28 09:49:58;;;;;;;8.98;7.90;;;;;;;22.35;28.71;101924.45;1818135;78;20938;-76
2021/03/28 09:52:49;;;;;;;9.28;8.33;;;;;;;21.91;28.96;101917.16;1818148;79;20930;-84
2021/03/28 09:55:35;;;;;;;10.98;8.00;;;;;;;21.34;28.92;101918.02;1818238;79;21140;-82
2021/03/28 09:58:36;;;;;;;10.32;8.70;;;;;;;20.76;29.62;101920.24;1818364;78;21249;-77
2021/03/28 10:01:36;;;;;;;14.20;9.98;;;;;;;20.20;30.48;101917.20;1818383;79;20931;-80
2021/03/28 10:04:18;;;;;;;10.95;9.60;;;;;;;19.58;31.61;101915.34;1818483;79;20977;-78
2021/03/28 10:19:12;;;;;;;11.93;9.40;;;;;;;18.60;35.04;101903.63;1777799;79;22730;-91
2021/03/28 10:21:51;;;;;;;10.55;9.50;;;;;;;18.56;34.13;101902.63;1749821;80;21201;-79
2021/03/28 10:24:49;;;;;;;13.85;9.90;;;;;;;18.62;34.28;101896.39;1749789;82;21199;-77
2021/03/28 10:27:36;;;;;;;13.20;10.78;;;;;;;18.55;34.59;101895.64;1749619;82;21019;-80
2021/03/28 10:30:41;;;;;;;17.17;10.53;;;;;;;18.48;35.25;101895.23;1749683;80;20911;-78
2021/03/28 10:33:31;;;;;;;12.98;9.35;;;;;;;18.64;35.46;101895.80;1749771;82;21555;-82
2021/03/28 10:36:34;;;;;;;15.23;11.63;;;;;;;18.99;35.78;101893.69;1749823;82;21039;-77
2021/03/28 10:39:40;;;;;;;20.05;16.55;;;;;;;19.30;34.78;101888.70;1749994;82;21214;-83
2021/03/28 10:42:38;;;;;;;22.07;14.00;;;;;;;19.82;34.20;101884.66;1750433;82;20998;-79
2021/03/28 10:45:40;;;;;;;17.95;16.05;;;;;;;20.37;32.97;101882.05;1751768;80;21491;-80
2021/03/28 10:48:49;;;;;;;19.10;15.45;;;;;;;20.62;32.34;101880.06;1751365;80;20962;-78
2021/03/28 10:51:50;;;;;;;17.35;15.50;;;;;;;20.61;31.62;101875.70;1749691;82;20943;-79
2021/03/28 10:54:42;;;;;;;19.75;15.18;;;;;;;20.32;31.47;101875.39;1749636;82;21190;-79
2021/03/28 10:57:56;;;;;;;19.20;16.55;;;;;;;19.82;32.42;101875.34;1749283;80;21417;-82
2021/03/28 11:00:56;;;;;;;18.50;13.62;;;;;;;19.41;32.98;101878.08;1749838;82;21350;-83
2021/03/28 11:03:51;;;;;;;22.55;16.40;;;;;;;19.14;34.35;101869.09;1749666;81;21034;-88
2021/03/28 11:06:41;;;;;;;18.50;15.58;;;;;;;18.93;34.65;101864.91;1745795;82;21018;-83
2021/03/28 11:09:18;;;;;;;17.55;15.18;;;;;;;18.97;33.90;101864.20;1749483;80;21183;-83
2021/03/28 11:12:14;;;;;;;20.90;17.45;;;;;;;19.16;34.76;101864.95;1749688;82;20939;-84
2021/03/28 11:15:18;;;;;;;18.42;15.48;;;;;;;19.23;33.48;101856.41;1749594;82;21014;-72
2021/03/28 11:18:29;;;;;;;19.73;16.20;;;;;;;19.05;32.91;101860.00;1749971;81;21042;-82
2021/03/28 11:21:36;;;;;;;20.35;16.60;;;;;;;18.58;33.50;101863.03;1751036;82;21210;-81
2021/03/28 11:24:45;;;;;;;18.85;16.90;;;;;;;18.19;34.29;101863.67;1750542;82;21819;-83
2021/03/28 11:27:52;;;;;;;26.75;19.65;;;;;;;17.91;35.07;101858.65;1750591;82;20927;-84
2021/03/28 11:30:46;;;;;;;26.62;21.17;;;;;;;17.92;35.73;101860.33;1749921;82;20982;-82
2021/03/28 11:33:26;;;;;;;25.45;21.37;;;;;;;17.87;35.08;101855.84;1750004;81;20951;-85
2021/03/28 11:36:03;;;;;;;28.20;23.47;;;;;;;17.59;35.44;101859.94;1749992;80;21053;-83
2021/03/28 11:38:41;;;;;;;25.43;21.73;;;;;;;17.30;35.64;101865.09;1749970;80;21484;-81
2021/03/28 11:41:18;;;;;;;29.52;23.90;;;;;;;16.99;36.15;101863.19;1749840;82;20998;-82
2021/03/28 11:43:54;;;;;;;28.80;24.02;;;;;;;16.65;36.73;101864.53;1749890;80;21538;-79
2021/03/28 11:46:31;;;;;;;33.10;25.40;;;;;;;16.37;36.96;101863.70;1749903;82;20888;-77
2021/03/28 11:49:05;;;;;;;34.38;24.95;;;;;;;16.17;37.18;101861.00;1749911;82;21022;-82
2021/03/28 11:51:51;;;;;;;34.67;25.82;;;;;;;15.99;38.14;101851.11;1750290;82;21359;-74
2021/03/28 11:54:27;;;;;;;31.60;24.67;;;;;;;16.04;37.88;101857.44;1749906;82;21583;-76
2021/03/28 11:57:09;;;;;;;32.73;25.40;;;;;;;16.11;38.37;101856.09;1750119;80;20979;-78
2021/03/28 11:59:53;;;;;;;31.33;27.20;;;;;;;16.22;38.25;101851.45;1750059;82;21098;-76
2021/03/28 12:02:28;;;;;;;36.42;28.47;;;;;;;16.21;37.98;101849.73;1750032;82;21436;-77
2021/03/28 12:05:09;;;;;;;29.18;25.45;;;;;;;16.09;37.83;101850.05;1749792;82;21386;-76
2021/03/28 12:07:44;;;;;;;31.93;26.12;;;;;;;16.09;37.83;101850.05;1749758;82;20966;-77
2021/03/28 12:10:33;;;;;;;30.00;23.22;;;;;;;15.99;37.77;101848.95;1749805;82;21026;-76
2021/03/28 12:13:37;;;;;;;30.68;24.05;;;;;;;15.84;37.83;101846.78;1749744;80;20899;-75
2021/03/28 12:16:07;;;;;;;30.68;24.20;;;;;;;15.84;37.83;101846.78;1749910;82;20998;-76
2021/03/28 12:18:44;;;;;;;29.98;24.35;;;;;;;15.74;37.77;101842.55;1750095;80;21573;-77
2021/03/28 12:21:23;;;;;;;36.13;23.92;;;;;;;15.70;37.89;101837.04;1749840;82;20967;-77
2021/03/28 12:23:58;;;;;;;32.42;24.77;;;;;;;15.66;38.66;101837.69;1749778;80;21007;-76
2021/03/28 12:26:41;;;;;;;32.08;24.80;;;;;;;15.57;37.77;101834.30;1749839;80;20947;-75
2021/03/28 12:29:29;;;;;;;31.65;25.52;;;;;;;15.48;37.82;101838.35;1749951;80;21121;-75
2021/03/28 12:31:56;;;;;;;29.98;24.00;;;;;;;15.44;37.80;101830.23;1749832;82;21816;-74
2021/03/28 12:34:37;;;;;;;28.67;23.00;;;;;;;15.47;38.09;101830.06;1749746;82;20943;-76
2021/03/28 12:37:14;;;;;;;31.95;23.70;;;;;;;15.45;37.92;101830.63;1749820;82;21381;-75
2021/03/28 12:39:49;;;;;;;33.90;26.12;;;;;;;15.39;37.71;101834.11;1749906;82;21495;-76
2021/03/28 12:42:37;;;;;;;28.50;23.77;;;;;;;15.29;38.18;101832.48;1750110;82;20963;-76
2021/03/28 12:45:16;;;;;;;34.45;22.95;;;;;;;15.17;38.06;101833.23;1745654;82;21350;-76
2021/03/28 12:47:54;;;;;;;30.12;21.95;;;;;;;15.08;38.37;101820.94;1749716;82;20955;-75
2021/03/28 12:50:36;;;;;;;31.65;22.65;;;;;;;15.05;38.72;101826.42;1749833;82;20943;-76
2021/03/28 12:53:20;;;;;;;27.65;21.33;;;;;;;15.01;38.27;101821.41;1749693;82;21054;-76
2021/03/28 12:55:53;;;;;;;29.32;22.02;;;;;;;15.02;38.36;101824.42;1749838;80;21026;-73
2021/03/28 12:58:40;;;;;;;34.13;22.87;;;;;;;15.03;39.19;101826.10;1749871;82;20997;-74
2021/03/28 13:01:33;;;;;;;28.10;20.92;;;;;;;15.03;38.68;101821.70;1749720;81;21073;-74
2021/03/28 13:04:17;;;;;;;27.62;21.15;;;;;;;15.04;38.35;101819.42;1750055;82;21425;-75
2021/03/28 13:06:52;;;;;;;27.45;21.35;;;;;;;15.10;37.86;101811.13;1749742;80;20947;-74
2021/03/28 13:09:26;;;;;;;28.83;20.32;;;;;;;15.10;37.86;101811.13;1749823;82;20958;-75
2021/03/28 13:12:10;;;;;;;24.65;20.30;;;;;;;15.13;37.74;101813.58;1749794;82;20947;-73
2021/03/28 13:14:43;;;;;;;27.35;20.45;;;;;;;15.15;37.87;101810.01;1746411;80;20967;-74
2021/03/28 13:17:21;;;;;;;24.75;19.60;;;;;;;15.17;37.17;101809.45;1749830;82;20962;-74
2021/03/28 13:19:55;;;;;;;25.50;20.10;;;;;;;15.18;37.03;101806.69;1746364;80;21030;-74
2021/03/28 13:22:38;;;;;;;30.20;20.92;;;;;;;15.21;36.79;101803.88;1749868;80;21365;-75
2021/03/28 13:25:24;;;;;;;28.25;19.67;;;;;;;15.25;36.86;101797.92;1749866;82;22703;-74
2021/03/28 13:28:06;;;;;;;29.15;19.65;;;;;;;15.25;36.90;101799.24;1749685;82;21022;-75
2021/03/28 13:30:41;;;;;;;23.22;19.45;;;;;;;15.20;36.71;101796.04;1748336;82;28089;-75
2021/03/28 13:33:35;;;;;;;27.53;22.17;;;;;;;15.17;36.88;101800.20;1749963;82;20998;-73
2021/03/28 13:36:31;;;;;;;33.28;20.68;;;;;;;15.07;36.90;101789.31;1749975;82;21631;-73